Time;durP1;ratioP1;P1;durP2;ratioP2;P2;SDS_P1;SDS_P2;PMS_P1;PMS_P2;Temp;Humidity;BMP_temperature;BMP_pressure;BME280_temperature;BME280_humidity;BME280_pressure;Samples;Min_cycle;Max_cycle;Signal;HPM_P1;HPM_P2
2024/04/18 00:01:15;;;;;;;9.60;3.50;;;;;;;16.21;100.00;98918.63;109444;1251;71393;-55
2024/04/18 00:03:43;;;;;;;8.90;3.70;;;;;;;16.22;100.00;98920.02;109405;1251;59373;-55
2024/04/18 00:06:10;;;;;;;10.50;3.60;;;;;;;16.16;100.00;98915.95;109444;1251;59633;-55
2024/04/18 00:08:38;;;;;;;9.70;3.10;;;;;;;16.11;100.00;98911.88;109530;1251;75124;-55
2024/04/18 00:11:24;;;;;;;13.30;4.20;;;;;;;16.12;100.00;98909.25;109500;1251;66454;-55
2024/04/18 00:13:51;;;;;;;11.70;3.90;;;;;;;16.14;100.00;98905.06;109497;1251;72747;-55
2024/04/18 00:16:34;;;;;;;8.40;3.30;;;;;;;16.14;100.00;98900.91;109390;1251;60174;-55
2024/04/18 00:19:16;;;;;;;9.60;4.00;;;;;;;16.14;100.00;98899.79;109481;1252;60097;-55
2024/04/18 00:21:57;;;;;;;11.20;3.60;;;;;;;16.16;100.00;98908.02;109426;1252;73420;-55
2024/04/18 00:24:27;;;;;;;9.10;3.40;;;;;;;16.05;100.00;98908.93;109357;1254;65628;-55
2024/04/18 00:26:55;;;;;;;9.00;4.40;;;;;;;15.93;100.00;98907.69;109433;1251;72743;-55
2024/04/18 00:29:35;;;;;;;7.40;3.60;;;;;;;15.91;100.00;98906.23;109466;1251;60081;-55
2024/04/18 00:32:15;;;;;;;8.70;3.40;;;;;;;15.86;100.00;98907.88;109473;1251;60048;-55
2024/04/18 00:35:01;;;;;;;9.80;3.70;;;;;;;15.83;100.00;98905.56;109487;1251;73482;-55
2024/04/18 00:37:34;;;;;;;9.10;3.90;;;;;;;15.80;100.00;98913.73;109409;1252;67552;-55
2024/04/18 00:40:01;;;;;;;10.00;3.80;;;;;;;15.75;100.00;98916.73;109305;1254;73171;-55
2024/04/18 00:42:36;;;;;;;9.60;3.90;;;;;;;15.76;100.00;98917.38;109412;1252;60110;-55
2024/04/18 00:45:06;;;;;;;10.30;3.80;;;;;;;15.68;100.00;98919.46;109448;1254;58883;-55
2024/04/18 00:47:47;;;;;;;8.20;3.90;;;;;;;15.61;100.00;98917.79;109398;1254;74690;-55
2024/04/18 00:50:15;;;;;;;8.90;3.70;;;;;;;15.54;100.00;98928.80;109364;1251;64959;-55
2024/04/18 00:52:43;;;;;;;13.40;3.80;;;;;;;15.52;100.00;98927.94;109411;1251;71420;-55
2024/04/18 00:55:26;;;;;;;8.20;4.40;;;;;;;15.44;100.00;98933.31;109290;1251;58994;-55
2024/04/18 00:58:10;;;;;;;9.00;3.90;;;;;;;15.38;100.00;98929.73;109403;1251;59435;-55
2024/04/18 01:00:40;;;;;;;9.40;4.00;;;;;;;15.30;100.00;98926.71;109485;1251;73390;-55
2024/04/18 01:03:27;;;;;;;11.00;4.40;;;;;;;15.23;100.00;98926.95;109486;1251;66945;-55
2024/04/18 01:06:07;;;;;;;10.90;4.60;;;;;;;15.19;100.00;98934.09;109448;1251;71093;-55
2024/04/18 01:08:53;;;;;;;10.00;4.30;;;;;;;15.13;100.00;98935.54;109480;1251;59391;-55
2024/04/18 01:11:30;;;;;;;14.50;4.60;;;;;;;15.06;100.00;98939.92;109478;1251;60153;-55
2024/04/18 01:14:10;;;;;;;13.90;4.70;;;;;;;15.01;100.00;98939.87;109369;1253;74733;-55
2024/04/18 01:16:56;;;;;;;12.00;4.20;;;;;;;14.94;100.00;98933.80;109423;1253;66948;-55
2024/04/18 01:19:24;;;;;;;10.60;4.90;;;;;;;14.90;100.00;98938.89;109349;1252;71393;-55
2024/04/18 01:21:52;;;;;;;9.90;4.00;;;;;;;14.86;100.00;98943.52;109406;1253;60468;-55
2024/04/18 01:24:19;;;;;;;10.40;4.70;;;;;;;14.81;100.00;98930.91;109480;1252;60101;-55
2024/04/18 01:26:47;;;;;;;8.70;4.20;;;;;;;14.81;100.00;98920.95;109433;1254;72511;-55
2024/04/18 01:29:14;;;;;;;8.50;4.10;;;;;;;14.81;100.00;98919.27;109457;1252;65697;-55
2024/04/18 01:32:00;;;;;;;9.30;4.30;;;;;;;14.78;100.00;98921.74;109440;1252;71442;-55
2024/04/18 01:34:28;;;;;;;8.20;4.10;;;;;;;14.74;100.00;98918.77;108476;1252;1265418;-55
2024/04/18 01:37:14;;;;;;;8.60;4.10;;;;;;;14.73;100.00;98914.74;109416;1252;60079;-55
2024/04/18 01:39:43;;;;;;;9.60;4.30;;;;;;;14.73;100.00;98914.70;109379;1251;74725;-55
2024/04/18 01:42:11;;;;;;;10.20;3.90;;;;;;;14.75;100.00;98912.16;109428;1253;65069;-55
2024/04/18 01:44:42;;;;;;;9.60;4.70;;;;;;;14.74;100.00;98914.57;109452;1251;71437;-55
2024/04/18 01:47:27;;;;;;;8.60;4.40;;;;;;;14.74;100.00;98920.23;109483;1251;60524;-55
2024/04/18 01:50:08;;;;;;;7.90;3.80;;;;;;;14.74;100.00;98916.02;109469;1251;60081;-55
2024/04/18 01:52:35;;;;;;;7.60;3.70;;;;;;;14.70;100.00;98911.36;109327;1251;74686;-55
2024/04/18 01:55:04;;;;;;;8.70;4.50;;;;;;;14.67;100.00;98918.29;109449;1251;67071;-55
2024/04/18 01:57:38;;;;;;;10.30;4.50;;;;;;;14.62;100.00;98928.60;109420;1251;71485;-55
2024/04/18 02:00:24;;;;;;;7.40;4.20;;;;;;;14.55;100.00;98937.34;109445;1251;60145;-55
2024/04/18 02:02:51;;;;;;;11.20;4.20;;;;;;;14.51;100.00;98948.42;109466;1253;60240;-55
2024/04/18 02:05:37;;;;;;;7.70;3.80;;;;;;;14.50;100.00;98955.29;109429;1252;74709;-54
2024/04/18 02:08:14;;;;;;;8.80;4.60;;;;;;;14.47;100.00;98956.79;109402;1253;65866;-54
2024/04/18 02:10:44;;;;;;;9.40;4.10;;;;;;;14.43;100.00;98960.77;109398;1253;71433;-54
2024/04/18 02:13:34;;;;;;;9.70;3.60;;;;;;;14.37;100.00;98958.73;109349;1252;60474;-54
2024/04/18 02:16:03;;;;;;;13.60;4.20;;;;;;;14.33;100.00;98955.39;109429;1253;59001;-54
2024/04/18 02:18:49;;;;;;;9.80;4.40;;;;;;;14.34;100.00;98950.78;109451;1254;73471;-54
2024/04/18 02:21:16;;;;;;;9.80;5.10;;;;;;;14.34;100.00;98940.45;109410;1252;67745;-54
2024/04/18 02:23:51;;;;;;;9.40;3.80;;;;;;;14.33;100.00;98933.05;109476;1251;72705;-54
2024/04/18 02:26:19;;;;;;;13.10;4.50;;;;;;;14.32;100.00;98930.05;109486;1251;58998;-54
2024/04/18 02:28:46;;;;;;;11.10;5.40;;;;;;;14.31;100.00;98939.99;109434;1251;59398;-55
2024/04/18 02:31:16;;;;;;;6.60;3.90;;;;;;;14.32;100.00;98945.27;109553;1250;74701;-54
2024/04/18 02:33:51;;;;;;;9.10;4.70;;;;;;;14.35;100.00;98943.61;109502;1251;65304;-54
2024/04/18 02:36:19;;;;;;;9.80;4.50;;;;;;;14.39;100.00;98949.06;109445;1251;71358;-54
2024/04/18 02:38:47;;;;;;;11.30;4.60;;;;;;;14.43;100.00;98945.25;109345;1253;62148;-54
2024/04/18 02:41:14;;;;;;;10.10;4.00;;;;;;;14.46;100.00;98946.86;109390;1253;58999;-54
2024/04/18 02:43:49;;;;;;;11.10;3.70;;;;;;;14.50;100.00;98942.95;109445;1253;73503;-54
2024/04/18 02:46:17;;;;;;;12.10;4.80;;;;;;;14.53;100.00;98947.31;109449;1251;65627;-55
2024/04/18 02:49:03;;;;;;;13.80;4.60;;;;;;;14.54;100.00;98953.09;109476;1251;73180;-54
2024/04/18 02:51:30;;;;;;;9.00;4.50;;;;;;;14.55;100.00;98960.27;109456;1251;59063;-54
2024/04/18 02:54:13;;;;;;;11.00;4.80;;;;;;;14.56;100.00;98962.26;109461;1251;59731;-54
2024/04/18 02:56:41;;;;;;;8.50;4.30;;;;;;;14.52;100.00;98962.25;109493;1251;75147;-54
2024/04/18 02:59:10;;;;;;;12.70;4.60;;;;;;;14.54;100.00;98964.79;109539;1251;66949;-54
2024/04/18 03:01:50;;;;;;;10.30;4.40;;;;;;;14.53;100.00;98969.80;109436;1253;71439;-55
2024/04/18 03:04:17;;;;;;;10.50;4.70;;;;;;;14.52;100.00;98974.94;109443;1251;60110;-54
2024/04/18 03:06:45;;;;;;;10.80;4.90;;;;;;;14.50;100.00;98973.60;109450;1251;60236;-54
2024/04/18 03:09:13;;;;;;;9.30;4.20;;;;;;;14.49;100.00;98968.05;109448;1251;74838;-54
2024/04/18 03:11:53;;;;;;;11.20;4.60;;;;;;;14.50;100.00;98956.91;109503;1251;65715;-54
2024/04/18 03:14:42;;;;;;;8.60;4.50;;;;;;;14.52;100.00;98960.94;109506;1251;72717;-55
2024/04/18 03:17:09;;;;;;;9.20;4.40;;;;;;;14.60;100.00;98961.67;109354;1254;60108;-55
2024/04/18 03:19:55;;;;;;;8.80;4.60;;;;;;;14.69;100.00;98951.95;109490;1251;58968;-55
2024/04/18 03:22:26;;;;;;;9.70;4.50;;;;;;;14.78;100.00;98950.29;109450;1251;73823;-55
2024/04/18 03:24:59;;;;;;;11.30;4.60;;;;;;;14.87;100.00;98947.88;109448;1251;66925;-55
2024/04/18 03:27:30;;;;;;;14.50;4.80;;;;;;;14.95;100.00;98937.90;109434;1251;72772;-55
2024/04/18 03:29:58;;;;;;;9.50;4.80;;;;;;;15.04;100.00;98936.59;109452;1251;60157;-56
2024/04/18 03:32:35;;;;;;;10.00;3.80;;;;;;;15.12;100.00;98934.65;109373;1251;58965;-56
2024/04/18 03:35:03;;;;;;;9.00;3.90;;;;;;;15.18;100.00;98934.08;109491;1251;75166;-56
2024/04/18 03:37:31;;;;;;;9.40;4.70;;;;;;;15.26;100.00;98937.43;109499;1251;66198;-57
2024/04/18 03:40:20;;;;;;;10.10;3.90;;;;;;;15.39;100.00;98935.52;109461;1251;72772;-57
2024/04/18 03:43:02;;;;;;;11.00;4.60;;;;;;;15.46;100.00;98943.21;109442;1251;60152;-57
2024/04/18 03:45:30;;;;;;;11.40;4.30;;;;;;;15.54;100.00;98938.63;109416;1251;59991;-56
2024/04/18 03:48:16;;;;;;;8.80;4.50;;;;;;;15.64;100.00;98939.62;109446;1253;73691;-56
2024/04/18 03:50:43;;;;;;;10.80;4.50;;;;;;;15.73;100.00;98934.79;109468;1252;67061;-56
2024/04/18 03:53:20;;;;;;;10.90;4.20;;;;;;;15.84;100.00;98938.72;109353;1254;71449;-56
2024/04/18 03:56:08;;;;;;;11.00;3.90;;;;;;;15.94;100.00;98942.23;109399;1253;58891;-56
2024/04/18 03:58:35;;;;;;;8.60;3.90;;;;;;;16.03;100.00;98942.20;109401;1252;59477;-56
2024/04/18 04:01:03;;;;;;;10.70;4.20;;;;;;;16.14;100.00;98937.40;109480;1251;74718;-56
2024/04/18 04:03:31;;;;;;;9.80;4.50;;;;;;;16.21;100.00;98933.34;109474;1251;65808;-56
2024/04/18 04:05:58;;;;;;;9.40;4.60;;;;;;;16.26;100.00;98933.74;109407;1251;72901;-56
2024/04/18 04:08:26;;;;;;;9.70;4.70;;;;;;;16.30;100.00;98932.99;109442;1251;59068;-56
2024/04/18 04:11:12;;;;;;;10.60;4.20;;;;;;;16.36;100.00;98935.83;109432;1251;59679;-56
2024/04/18 04:13:40;;;;;;;9.50;4.10;;;;;;;16.40;100.00;98938.31;109517;1251;74634;-57
2024/04/18 04:16:18;;;;;;;9.90;4.30;;;;;;;16.43;100.00;98945.23;109475;1251;67428;-56
2024/04/18 04:18:50;;;;;;;10.00;4.30;;;;;;;16.46;100.00;98941.09;109431;1251;72839;-57
2024/04/18 04:21:37;;;;;;;7.50;3.30;;;;;;;16.49;100.00;98939.85;109468;1251;60179;-56
2024/04/18 04:24:05;;;;;;;8.60;4.40;;;;;;;16.53;100.00;98936.40;109460;1251;59300;-56
2024/04/18 04:26:51;;;;;;;9.80;3.90;;;;;;;16.57;100.00;98929.69;109475;1251;73482;-56
2024/04/18 04:29:19;;;;;;;12.70;4.70;;;;;;;16.60;100.00;98926.13;109554;1251;66829;-56
2024/04/18 04:31:47;;;;;;;7.60;3.90;;;;;;;16.67;100.00;98928.42;109469;1251;72760;-56
2024/04/18 04:34:14;;;;;;;9.30;4.10;;;;;;;16.72;100.00;98920.41;109397;1251;60725;-56
2024/04/18 04:36:41;;;;;;;9.00;3.80;;;;;;;16.81;100.00;98919.79;109521;1251;60194;-56
2024/04/18 04:39:09;;;;;;;13.90;4.50;;;;;;;16.90;100.00;98921.88;109490;1251;74725;-56
2024/04/18 04:41:39;;;;;;;12.90;4.50;;;;;;;16.96;100.00;98919.96;109535;1251;66589;-56
2024/04/18 04:44:07;;;;;;;10.30;4.10;;;;;;;17.05;100.00;98925.00;109426;1253;71418;-56
2024/04/18 04:46:48;;;;;;;10.00;4.00;;;;;;;17.15;100.00;98924.77;109443;1251;58964;-56
2024/04/18 04:49:17;;;;;;;13.30;5.70;;;;;;;17.23;100.00;98927.16;109432;1251;60097;-56
2024/04/18 04:52:00;;;;;;;8.80;5.00;;;;;;;17.33;100.00;98935.24;109511;1251;73415;-56
2024/04/18 04:54:43;;;;;;;7.90;3.90;;;;;;;17.42;100.00;98935.59;109487;1251;65007;-56
2024/04/18 04:57:11;;;;;;;12.80;4.50;;;;;;;17.52;100.00;98931.34;109500;1251;71470;-56
2024/04/18 04:59:39;;;;;;;10.70;4.70;;;;;;;17.63;100.00;98923.94;109446;1251;60642;-57
2024/04/18 05:02:07;;;;;;;12.80;4.70;;;;;;;17.78;100.00;98912.64;109503;1251;58853;-56
2024/04/18 05:04:50;;;;;;;9.10;4.20;;;;;;;17.97;100.00;98899.27;109575;1251;73449;-55
2024/04/18 05:07:30;;;;;;;9.20;4.50;;;;;;;18.20;100.00;98899.82;109393;1256;68188;-56
2024/04/18 05:09:57;;;;;;;12.60;4.80;;;;;;;18.52;100.00;98903.13;109405;1253;72727;-56
2024/04/18 05:12:25;;;;;;;12.80;4.70;;;;;;;19.01;100.00;98909.06;109456;1251;60222;-56
2024/04/18 05:14:52;;;;;;;7.80;3.90;;;;;;;19.56;100.00;98908.66;109483;1253;59427;-56
2024/04/18 05:17:51;;;;;;;8.90;4.50;;;;;;;20.20;100.00;98903.41;109446;1253;74748;-56
2024/04/18 05:20:19;;;;;;;8.60;3.90;;;;;;;20.55;100.00;98894.88;109462;1252;65644;-56
2024/04/18 05:22:47;;;;;;;8.70;4.40;;;;;;;20.89;100.00;98881.73;109408;1254;72713;-56
2024/04/18 05:25:14;;;;;;;10.20;4.40;;;;;;;21.30;100.00;98880.45;109410;1252;59261;-56
2024/04/18 05:27:53;;;;;;;12.10;4.60;;;;;;;21.95;100.00;98876.27;109440;1254;59209;-56
2024/04/18 05:33:25;;;;;;;14.20;4.50;;;;;;;24.53;88.97;98868.27;109457;1254;65802;-57
2024/04/18 05:35:52;;;;;;;6.80;4.10;;;;;;;25.81;70.57;98867.27;109411;1254;71428;-57
2024/04/18 05:38:20;;;;;;;8.40;4.80;;;;;;;26.90;56.49;98873.13;109405;1252;60575;-57
2024/04/18 05:40:48;;;;;;;8.70;4.10;;;;;;;27.85;48.17;98873.99;109472;1253;59491;-57
2024/04/18 05:43:15;;;;;;;9.30;5.10;;;;;;;28.31;43.09;98877.67;109438;1254;73800;-57
2024/04/18 05:45:46;;;;;;;10.40;5.10;;;;;;;28.58;41.89;98880.61;109475;1253;66203;-57
2024/04/18 05:48:14;;;;;;;9.60;4.10;;;;;;;29.12;39.42;98872.17;109411;1254;73134;-58
2024/04/18 05:50:42;;;;;;;8.10;4.40;;;;;;;29.50;37.96;98867.70;109464;1252;60295;-58
2024/04/18 05:53:20;;;;;;;8.30;4.50;;;;;;;29.87;36.95;98868.85;109465;1254;61102;-58
2024/04/18 05:55:53;;;;;;;9.50;5.00;;;;;;;29.99;36.41;98866.92;109396;1255;73209;-58
2024/04/18 05:58:20;;;;;;;7.90;4.10;;;;;;;30.15;36.29;98867.31;109430;1252;66152;-58
2024/04/18 06:00:54;;;;;;;13.50;5.50;;;;;;;30.46;35.42;98864.23;109457;1253;72766;-60
2024/04/18 06:03:22;;;;;;;9.70;4.80;;;;;;;30.52;35.10;98855.77;109415;1254;60213;-61
2024/04/18 06:05:52;;;;;;;10.90;4.20;;;;;;;30.43;34.70;98852.64;109413;1254;59490;-60
2024/04/18 06:08:19;;;;;;;9.00;4.10;;;;;;;30.52;34.97;98851.23;109302;1254;75374;-60
2024/04/18 06:10:47;;;;;;;13.00;4.70;;;;;;;30.75;34.38;98853.21;109495;1252;67261;-62
2024/04/18 06:13:18;;;;;;;8.50;4.80;;;;;;;30.71;33.39;98861.89;109462;1253;70937;-61
2024/04/18 06:15:47;;;;;;;12.70;4.70;;;;;;;30.33;33.60;98857.48;109393;1253;59820;-59
2024/04/18 06:18:15;;;;;;;9.10;5.00;;;;;;;29.88;34.13;98864.49;109412;1253;58888;-60
2024/04/18 06:20:45;;;;;;;13.10;4.90;;;;;;;29.41;34.92;98869.30;109425;1254;74007;-60
2024/04/18 06:23:13;;;;;;;7.50;3.80;;;;;;;28.98;35.75;98869.98;109481;1254;65690;-58
2024/04/18 06:25:41;;;;;;;7.00;3.80;;;;;;;28.76;36.59;98887.05;109408;1256;72892;-60
2024/04/18 06:28:12;;;;;;;9.20;3.90;;;;;;;28.64;36.82;98892.27;109428;1254;60756;-61
2024/04/18 06:30:39;;;;;;;7.30;3.70;;;;;;;28.51;37.26;98893.32;109462;1256;59015;-59
2024/04/18 06:33:10;;;;;;;10.10;4.40;;;;;;;28.53;37.74;98891.86;109466;1251;75254;-58
2024/04/18 06:35:38;;;;;;;7.10;4.20;;;;;;;28.54;37.10;98891.89;109426;1253;67589;-58
2024/04/18 06:38:06;;;;;;;7.30;3.50;;;;;;;28.45;37.47;98895.73;109473;1254;72476;-58
2024/04/18 06:40:34;;;;;;;8.20;3.90;;;;;;;28.32;37.69;98892.08;109399;1254;61902;-57
2024/04/18 06:43:01;;;;;;;13.40;4.50;;;;;;;28.07;37.77;98879.10;109451;1254;62290;-57
2024/04/18 06:45:29;;;;;;;10.30;4.10;;;;;;;27.79;38.20;98869.51;109419;1251;75176;-58
2024/04/18 06:47:56;;;;;;;7.70;4.10;;;;;;;27.44;39.11;98864.63;109451;1254;66637;-57
2024/04/18 06:50:26;;;;;;;10.10;4.60;;;;;;;27.31;40.03;98855.29;109458;1253;72874;-57
2024/04/18 06:52:53;;;;;;;6.60;3.70;;;;;;;27.34;40.58;98854.17;109453;1253;59809;-58
2024/04/18 06:55:24;;;;;;;9.20;5.50;;;;;;;27.43;40.34;98849.45;109433;1254;61023;-57
2024/04/18 06:57:52;;;;;;;12.30;4.50;;;;;;;27.50;40.43;98847.39;109399;1254;76864;-58
2024/04/18 07:00:19;;;;;;;9.30;4.30;;;;;;;27.42;41.30;98837.33;109473;1251;65393;-57
2024/04/18 07:02:47;;;;;;;10.80;5.50;;;;;;;27.48;41.39;98825.70;109406;1251;73574;-57
2024/04/18 07:05:33;;;;;;;11.60;5.10;;;;;;;27.61;41.99;98822.16;109374;1251;60180;-56
2024/04/18 07:08:19;;;;;;;8.50;5.00;;;;;;;27.79;40.58;98817.50;109413;1254;60966;-56
2024/04/18 07:10:46;;;;;;;10.00;5.60;;;;;;;27.97;39.60;98815.66;109488;1251;73610;-56
2024/04/18 07:13:29;;;;;;;10.60;4.90;;;;;;;28.25;39.13;98810.56;109441;1251;67971;-56
2024/04/18 07:16:02;;;;;;;;;;;;;;;28.65;38.25;98810.42;109419;1252;71820;-56
2024/04/18 07:18:48;;;;;;;9.10;4.40;;;;;;;29.08;37.51;98815.86;109373;1253;63063;-56
2024/04/18 07:21:16;;;;;;;9.70;4.80;;;;;;;29.52;35.49;98815.98;109441;1253;60967;-57
2024/04/18 07:23:44;;;;;;;8.40;3.70;;;;;;;29.87;34.75;98814.34;109440;1251;77388;-57
2024/04/18 07:26:12;;;;;;;7.60;4.10;;;;;;;30.08;34.25;98811.20;109470;1251;65769;-57
2024/04/18 07:28:39;;;;;;;10.10;4.10;;;;;;;30.12;33.71;98806.89;109420;1251;75060;-58
2024/04/18 07:31:07;;;;;;;12.60;5.50;;;;;;;30.03;33.62;98799.08;109456;1251;60266;-57
2024/04/18 07:33:34;;;;;;;11.90;5.40;;;;;;;30.02;34.37;98790.94;109480;1251;60477;-57
2024/04/18 07:36:15;;;;;;;11.80;5.30;;;;;;;30.18;33.37;98787.48;109449;1251;74238;-57
2024/04/18 07:38:42;;;;;;;9.40;4.70;;;;;;;30.30;32.27;98774.61;109483;1254;66761;-57
2024/04/18 07:41:10;;;;;;;12.80;5.50;;;;;;;30.32;32.46;98760.37;109411;1251;72536;-57
2024/04/18 07:43:37;;;;;;;9.50;3.60;;;;;;;30.24;32.14;98762.59;109443;1251;60960;-57
2024/04/18 07:46:05;;;;;;;7.10;3.20;;;;;;;30.05;32.15;98753.75;109465;1251;60188;-57
2024/04/18 07:48:32;;;;;;;7.90;3.60;;;;;;;29.78;32.07;98752.23;109441;1253;75268;-57
2024/04/18 07:51:00;;;;;;;9.80;3.60;;;;;;;29.61;32.49;98745.59;109558;1251;66409;-57
2024/04/18 07:53:27;;;;;;;7.90;3.50;;;;;;;29.54;32.56;98734.27;109421;1254;72345;-57
2024/04/18 07:55:55;;;;;;;7.60;3.20;;;;;;;29.61;31.90;98734.30;109444;1251;59929;-57
2024/04/18 07:58:23;;;;;;;10.20;3.70;;;;;;;29.60;31.93;98732.98;109434;1251;59869;-57
2024/04/18 08:00:52;;;;;;;7.90;4.10;;;;;;;29.51;31.43;98726.81;109464;1255;75331;-57
2024/04/18 08:03:21;;;;;;;8.10;3.40;;;;;;;29.25;31.74;98717.73;109469;1251;68257;-57
2024/04/18 08:05:52;;;;;;;9.00;4.30;;;;;;;29.01;32.28;98708.52;109486;1251;72134;-57
2024/04/18 08:08:24;;;;;;;10.00;4.10;;;;;;;28.80;32.58;98705.87;109407;1251;59881;-56
2024/04/18 08:10:56;;;;;;;8.70;3.80;;;;;;;28.56;32.63;98707.27;109463;1251;60453;-56
2024/04/18 08:13:26;;;;;;;11.80;3.80;;;;;;;28.37;33.54;98709.47;109478;1251;74765;-58
2024/04/18 08:16:01;;;;;;;6.60;4.00;;;;;;;28.25;33.70;98711.95;109479;1251;66806;-56
2024/04/18 08:18:30;;;;;;;8.90;3.60;;;;;;;28.15;33.99;98714.70;109451;1251;73154;-56
2024/04/18 08:20:58;;;;;;;11.00;4.30;;;;;;;28.07;33.60;98723.73;109411;1252;60264;-56
2024/04/18 08:23:26;;;;;;;7.10;3.60;;;;;;;27.93;34.34;98721.40;109457;1253;59850;-56
2024/04/18 08:25:54;;;;;;;6.80;3.40;;;;;;;27.84;35.49;98715.84;109413;1253;78420;-56
2024/04/18 08:28:21;;;;;;;7.90;3.70;;;;;;;27.83;36.02;98714.06;109456;1253;68867;-56
2024/04/18 08:30:50;;;;;;;7.90;3.90;;;;;;;27.85;36.70;98722.09;109418;1253;74134;-58
2024/04/18 08:33:18;;;;;;;9.40;3.40;;;;;;;27.85;37.03;98729.25;109387;1253;61550;-56
2024/04/18 08:35:46;;;;;;;12.00;4.40;;;;;;;27.75;37.61;98729.71;109348;1252;61455;-56
2024/04/18 08:38:13;;;;;;;9.30;3.50;;;;;;;27.69;38.03;98734.75;109411;1254;78001;-56
2024/04/18 08:40:44;;;;;;;8.10;3.30;;;;;;;27.68;39.00;98739.85;109450;1252;69469;-56
2024/04/18 08:43:12;;;;;;;;;;;;;;;27.69;38.13;98742.49;109503;1254;75277;-55
2024/04/18 08:45:40;;;;;;;6.90;4.10;;;;;;;27.70;37.88;98749.86;109367;1254;62182;-55
2024/04/18 08:48:08;;;;;;;7.40;3.50;;;;;;;27.72;38.11;98757.81;109405;1253;61517;-56
2024/04/18 08:50:37;;;;;;;8.90;3.30;;;;;;;27.80;38.66;98761.27;109405;1254;77965;-55
2024/04/18 08:53:04;;;;;;;6.60;3.60;;;;;;;27.92;38.43;98764.39;109390;1254;69694;-55
2024/04/18 08:55:32;;;;;;;10.20;3.40;;;;;;;27.94;38.37;98768.34;109392;1253;75390;-57
2024/04/18 08:58:07;;;;;;;6.40;2.90;;;;;;;28.01;37.70;98770.45;109394;1256;62547;-57
2024/04/18 09:00:35;;;;;;;6.90;3.30;;;;;;;28.07;37.51;98767.16;109254;1253;62539;-56
2024/04/18 09:03:03;;;;;;;8.60;3.30;;;;;;;28.27;37.48;98762.55;109306;1252;76454;-55
2024/04/18 09:05:31;;;;;;;8.30;3.10;;;;;;;28.55;37.44;98755.20;109242;1253;68448;-57
2024/04/18 09:08:00;;;;;;;6.70;3.10;;;;;;;28.86;37.58;98731.46;109466;1253;75486;-55
2024/04/18 09:10:30;;;;;;;7.20;4.00;;;;;;;29.23;37.48;98730.24;109401;1254;61109;-58
2024/04/18 09:12:59;;;;;;;8.20;4.50;;;;;;;29.69;36.64;98732.18;109420;1253;61510;-55
2024/04/18 09:15:33;;;;;;;8.30;4.00;;;;;;;30.25;34.94;98737.92;109434;1253;76876;-55
2024/04/18 09:18:01;;;;;;;9.00;3.50;;;;;;;30.74;33.15;98735.49;109402;1252;69492;-58
2024/04/18 09:20:30;;;;;;;18.40;10.90;;;;;;;31.21;31.48;98735.64;109373;1253;64847;-55
2024/04/18 09:22:58;;;;;;;12.30;6.60;;;;;;;31.65;31.04;98742.71;109361;1252;60232;-56
2024/04/18 09:25:26;;;;;;;11.60;3.60;;;;;;;32.20;29.82;98746.40;109453;1253;61060;-56
2024/04/18 09:27:53;;;;;;;6.50;3.20;;;;;;;32.55;28.51;98741.20;109454;1253;77786;-56
2024/04/18 09:30:21;;;;;;;8.60;3.20;;;;;;;32.62;27.77;98739.20;109482;1253;68722;-56
2024/04/18 09:32:48;;;;;;;9.00;2.80;;;;;;;32.54;26.20;98714.98;109285;1254;64836;-56
2024/04/18 09:35:16;;;;;;;7.20;3.90;;;;;;;32.59;25.99;98684.75;109252;1254;62399;-56
2024/04/18 09:37:44;;;;;;;8.20;3.50;;;;;;;32.61;26.20;98686.39;109394;1254;59678;-56
2024/04/18 09:40:23;;;;;;;7.60;3.30;;;;;;;32.59;26.72;98692.14;109474;1253;77568;-56
2024/04/18 09:42:53;;;;;;;6.70;2.70;;;;;;;32.61;26.71;98697.49;109300;1253;60226;-56
2024/04/18 09:45:21;;;;;;;10.40;3.60;;;;;;;32.51;26.68;98711.86;109299;1253;74896;-56
2024/04/18 09:47:49;;;;;;;7.00;2.90;;;;;;;32.44;26.94;98722.19;109252;1254;61132;-56
2024/04/18 09:50:17;;;;;;;9.70;3.10;;;;;;;32.41;27.31;98728.62;109326;1253;61495;-56
2024/04/18 09:52:45;;;;;;;6.60;2.80;;;;;;;32.23;27.07;98726.96;109379;1254;77413;-56
2024/04/18 09:55:13;;;;;;;7.60;2.90;;;;;;;32.00;26.29;98717.42;109411;1252;68958;-56
2024/04/18 09:57:42;;;;;;;7.50;2.90;;;;;;;31.81;25.94;98708.24;109301;1252;75259;-56
2024/04/18 10:00:10;;;;;;;8.70;3.00;;;;;;;31.58;25.91;98699.98;109276;1253;61576;-56
2024/04/18 10:02:38;;;;;;;8.00;3.20;;;;;;;31.14;25.81;98693.00;109303;1252;62563;-56
2024/04/18 10:05:06;;;;;;;8.00;2.40;;;;;;;30.70;26.95;98686.34;109260;1254;77564;-56
2024/04/18 10:07:34;;;;;;;7.20;3.00;;;;;;;30.54;27.59;98682.86;109455;1252;69618;-56
2024/04/18 10:10:02;;;;;;;7.90;3.10;;;;;;;30.45;28.58;98672.77;109170;1253;74136;-56
2024/04/18 10:12:34;;;;;;;6.90;2.70;;;;;;;30.28;28.64;98667.75;109397;1253;62934;-56
2024/04/18 10:15:02;;;;;;;6.50;2.50;;;;;;;30.01;29.72;98659.79;109402;1253;61127;-56
2024/04/18 10:17:30;;;;;;;8.90;3.30;;;;;;;29.74;29.68;98657.64;109469;1253;76357;-56
2024/04/18 10:20:02;;;;;;;9.30;3.90;;;;;;;29.34;30.03;98655.16;109490;1251;68457;-56
2024/04/18 10:22:29;;;;;;;9.20;3.20;;;;;;;28.96;30.74;98657.09;109452;1251;73802;-56
2024/04/18 10:25:20;;;;;;;6.50;2.50;;;;;;;28.63;31.19;98655.83;109322;1251;63124;-56
2024/04/18 10:27:48;;;;;;;10.90;3.30;;;;;;;28.52;31.88;98667.95;109435;1253;62561;-56
2024/04/18 10:30:18;;;;;;;11.20;3.40;;;;;;;28.43;31.91;98676.27;109387;1253;76909;-57
2024/04/18 10:32:48;;;;;;;9.20;3.40;;;;;;;28.33;32.18;98674.38;109377;1253;69493;-57
2024/04/18 10:35:16;;;;;;;9.00;4.10;;;;;;;28.33;31.75;98677.27;109418;1252;74657;-56
2024/04/18 10:37:50;;;;;;;6.90;3.10;;;;;;;28.29;31.77;98675.15;109388;1253;61541;-57
2024/04/18 10:40:18;;;;;;;10.80;3.30;;;;;;;28.23;31.92;98668.17;109445;1253;61384;-57
2024/04/18 10:42:46;;;;;;;11.30;4.40;;;;;;;28.18;32.32;98669.27;109426;1253;77544;-56
2024/04/18 10:45:15;;;;;;;8.80;3.30;;;;;;;28.19;32.38;98667.67;109456;1252;69866;-58
2024/04/18 10:47:43;;;;;;;10.90;3.50;;;;;;;28.22;32.84;98666.77;109265;1253;75286;-58
2024/04/18 10:50:11;;;;;;;12.60;3.30;;;;;;;28.31;33.65;98671.46;109273;1252;62378;-56
2024/04/18 10:52:39;;;;;;;9.70;3.60;;;;;;;28.42;34.21;98667.30;109379;1253;62975;-58
2024/04/18 10:55:06;;;;;;;10.50;3.80;;;;;;;28.50;33.84;98663.08;109290;1253;77050;-56
2024/04/18 10:57:34;;;;;;;6.70;3.40;;;;;;;28.47;33.48;98667.05;109407;1253;69824;-55
2024/04/18 11:00:01;;;;;;;10.90;3.90;;;;;;;28.24;33.26;98660.54;109459;1251;73717;-56
2024/04/18 11:02:31;;;;;;;9.30;3.00;;;;;;;27.99;34.36;98645.88;109411;1251;62579;-57
2024/04/18 11:05:00;;;;;;;8.00;3.40;;;;;;;27.78;35.25;98633.26;109444;1251;61334;-55
2024/04/18 11:07:47;;;;;;;6.80;3.10;;;;;;;27.52;35.72;98635.19;109354;1251;76832;-56
2024/04/18 11:10:15;;;;;;;12.80;4.80;;;;;;;27.30;36.36;98644.05;109440;1251;67787;-55
2024/04/18 11:12:43;;;;;;;8.00;3.60;;;;;;;27.14;36.32;98645.14;109429;1251;74174;-57
2024/04/18 11:15:10;;;;;;;9.80;3.30;;;;;;;27.03;36.84;98648.49;109357;1251;62237;-56
2024/04/18 11:17:38;;;;;;;11.20;4.40;;;;;;;26.92;36.89;98658.42;109357;1251;61468;-56
2024/04/18 11:20:10;;;;;;;13.90;7.10;;;;;;;26.77;37.94;98678.40;109364;1254;78439;-56
2024/04/18 11:22:38;;;;;;;14.00;6.00;;;;;;;26.57;38.80;98691.27;109350;1251;68421;-57
2024/04/18 11:25:09;;;;;;;9.90;4.70;;;;;;;26.38;39.38;98692.70;109491;1251;74289;-56
2024/04/18 11:27:36;;;;;;;;;;;;;;;26.26;39.58;98696.61;109425;1252;61304;-56
2024/04/18 11:30:06;;;;;;;10.10;5.50;;;;;;;26.17;40.21;98688.71;109414;1251;61287;-56
2024/04/18 11:32:33;;;;;;;11.30;4.50;;;;;;;26.02;40.64;98664.95;109498;1251;77603;-56
2024/04/18 11:35:01;;;;;;;8.40;3.30;;;;;;;25.89;41.07;98627.30;109471;1251;69542;-56
2024/04/18 11:37:42;;;;;;;5.90;2.30;;;;;;;25.81;39.36;98584.15;109294;1251;75097;-56
2024/04/18 11:40:09;;;;;;;11.10;4.10;;;;;;;25.81;37.33;98562.14;109271;1251;62133;-56
2024/04/18 11:42:37;;;;;;;8.30;3.50;;;;;;;25.87;36.38;98569.73;109440;1251;61046;-56